Map

Track Data

SID SEASON NUMBER BASIN SUBBASIN NAME ISO_TIME NATURE LAT LON WMO_WIND WMO_PRES WMO_AGENCY TRACK_TYPE DIST2LAND LANDFALL IFLAG USA_AGENCY USA_ATCF_ID USA_LAT USA_LON USA_RECORD USA_STATUS USA_WIND USA_PRES USA_SSHS USA_R34_NE USA_R34_SE USA_R34_SW USA_R34_NW USA_R50_NE USA_R50_SE USA_R50_SW USA_R50_NW USA_R64_NE USA_R64_SE USA_R64_SW USA_R64_NW USA_POCI USA_ROCI USA_RMW USA_EYE TOKYO_LAT TOKYO_LON TOKYO_GRADE TOKYO_WIND TOKYO_PRES TOKYO_R50_DIR TOKYO_R50_LONG TOKYO_R50_SHORT TOKYO_R30_DIR TOKYO_R30_LONG TOKYO_R30_SHORT TOKYO_LAND CMA_LAT CMA_LON CMA_CAT CMA_WIND CMA_PRES HKO_LAT HKO_LON HKO_CAT HKO_WIND HKO_PRES NEWDELHI_LAT NEWDELHI_LON NEWDELHI_GRADE NEWDELHI_WIND NEWDELHI_PRES NEWDELHI_CI NEWDELHI_DP NEWDELHI_POCI REUNION_LAT REUNION_LON REUNION_TYPE REUNION_WIND REUNION_PRES REUNION_TNUM REUNION_CI REUNION_RMW REUNION_R34_NE REUNION_R34_SE REUNION_R34_SW REUNION_R34_NW REUNION_R50_NE REUNION_R50_SE REUNION_R50_SW REUNION_R50_NW REUNION_R64_NE REUNION_R64_SE REUNION_R64_SW REUNION_R64_NW BOM_LAT BOM_LON BOM_TYPE BOM_WIND BOM_PRES BOM_TNUM BOM_CI BOM_RMW BOM_R34_NE BOM_R34_SE BOM_R34_SW BOM_R34_NW BOM_R50_NE BOM_R50_SE BOM_R50_SW BOM_R50_NW BOM_R64_NE BOM_R64_SE BOM_R64_SW BOM_R64_NW BOM_ROCI BOM_POCI BOM_EYE BOM_POS_METHOD BOM_PRES_METHOD NADI_LAT NADI_LON NADI_CAT NADI_WIND NADI_PRES WELLINGTON_LAT WELLINGTON_LON WELLINGTON_WIND WELLINGTON_PRES DS824_LAT DS824_LON DS824_STAGE DS824_WIND DS824_PRES TD9636_LAT TD9636_LON TD9636_STAGE TD9636_WIND TD9636_PRES TD9635_LAT TD9635_LON TD9635_WIND TD9635_PRES TD9635_ROCI NEUMANN_LAT NEUMANN_LON NEUMANN_CLASS NEUMANN_WIND NEUMANN_PRES MLC_LAT MLC_LON MLC_CLASS MLC_WIND MLC_PRES USA_GUST BOM_GUST BOM_GUST_PER REUNION_GUST REUNION_GUST_PER USA_SEAHGT USA_SEARAD_NE USA_SEARAD_SE USA_SEARAD_SW USA_SEARAD_NW STORM_SPEED STORM_DIR
1917219N21088 1917 32 NI BB NOT_NAMED 1917-08-07 00:00:00 TS 20.8000 87.5000 main 51 30 _________O____ -1 20.8000 87.5000 TC 30 7 303
1917219N21088 1917 32 NI BB NOT_NAMED 1917-08-07 03:00:00 TS 20.9985 87.1669 main 30 0 _________PO___ -1 21.0978 87.0004 TC 30 20.8000 87.5000 1 9 303
1917219N21088 1917 32 NI BB NOT_NAMED 1917-08-07 06:00:00 TS 21.2874 86.6983 main 0 0 _________OP___ -1 21.4000 86.5000 TC 30 21.1185 86.9956 1 11 303
1917219N21088 1917 32 NI BB NOT_NAMED 1917-08-07 09:00:00 TS 21.5881 86.2108 main 0 0 _________PP___ -1 21.7073 85.9999 TC 30 21.4290 86.4921 1 11 303
1917219N21088 1917 32 NI BB NOT_NAMED 1917-08-07 12:00:00 TS 21.8625 85.7462 main 0 0 _________OP___ -1 22.0000 85.5000 TC 30 21.7250 85.9925 1 10 301
1917219N21088 1917 32 NI BB NOT_NAMED 1917-08-07 15:00:00 TS 22.1324 85.2499 main 0 0 _________PO___ -1 22.2648 84.9998 TC 30 22.0000 85.5000 1 11 299
1917219N21088 1917 32 NI BB NOT_NAMED 1917-08-07 18:00:00 TS 22.3749 84.7577 main 0 0 _________OP___ -1 22.5000 84.5000 TC 30 22.2498 85.0153 1 10 297
1917219N21088 1917 32 NI BB NOT_NAMED 1917-08-07 21:00:00 TS 22.5930 84.2717 main 0 0 _________PP___ -1 22.7072 84.0147 TC 30 22.4788 84.5288 1 10 295
1917219N21088 1917 32 NI BB NOT_NAMED 1917-08-08 00:00:00 TS 22.7967 83.7639 main 0 0 _________OP___ -1 22.9000 83.5000 TC 30 22.6934 84.0279 1 11 293
1917219N21088 1917 32 NI BB NOT_NAMED 1917-08-08 03:00:00 TS 23.0000 83.2074 main 0 0 _________PO___ -1 23.0999 82.9149 TC 30 22.9000 83.5000 1 11 291
1917219N21088 1917 32 NI BB NOT_NAMED 1917-08-08 06:00:00 TS 23.2037 82.6061 main 0 0 _________OP___ -1 23.3000 82.3000 TC 30 23.1074 82.9122 1 12 290
1917219N21088 1917 32 NI BB NOT_NAMED 1917-08-08 09:00:00 TS 23.4039 81.9923 main 0 0 _________PP___ -1 23.4999 81.6849 TC 30 23.3079 82.2997 1 12 290
1917219N21088 1917 32 NI BB NOT_NAMED 1917-08-08 12:00:00 TS 23.6021 81.3936 main 0 0 _________OP___ -1 23.7000 81.1000 TC 30 23.5043 81.6872 1 11 291
1917219N21088 1917 32 NI BB NOT_NAMED 1917-08-08 15:00:00 TS 23.7998 80.8424 main 0 0 _________PO___ -1 23.8997 80.5848 TC 30 23.7000 81.1000 1 10 292
1917219N21088 1917 32 NI BB NOT_NAMED 1917-08-08 18:00:00 TS 23.9847 80.3588 main 0 0 _________OP___ -1 24.1000 80.1000 TC 30 23.8693 80.6176 1 9 293
1917219N21088 1917 32 NI BB NOT_NAMED 1917-08-08 21:00:00 TS 24.1605 79.9002 main 0 0 _________PP___ -1 24.2768 79.6442 TC 30 24.0442 80.1563 1 10 294
1917219N21088 1917 32 NI BB NOT_NAMED 1917-08-09 00:00:00 TS 24.3735 79.3835 main 0 0 _________OP___ -1 24.5000 79.1000 TC 30 24.2471 79.6670 1 12 295
1917219N21088 1917 32 NI BB NOT_NAMED 1917-08-09 03:00:00 TS 24.6601 78.7225 main 0 0 _________PO___ -1 24.8202 78.3450 TC 30 24.5000 79.1000 1 15 296
1917219N21088 1917 32 NI AS NOT_NAMED 1917-08-09 06:00:00 TS 25.0133 77.9277 main 0 0 _________OP___ -1 25.2000 77.5000 TC 30 24.8265 78.3554 1 16 297
1917219N21088 1917 32 NI AS NOT_NAMED 1917-08-09 09:00:00 TS 25.4001 77.1011 main 0 0 _________PP___ -1 25.6000 76.6701 TC 30 25.2002 77.5321 1 17 298
1917219N21088 1917 32 NI AS NOT_NAMED 1917-08-09 12:00:00 TS 25.7992 76.2963 main 0 0 _________OP___ -1 26.0000 75.9000 TC 30 25.5984 76.6925 1 16 300
1917219N21088 1917 32 NI AS NOT_NAMED 1917-08-09 15:00:00 TS 26.1747 75.5846 main 0 0 _________PO___ -1 26.3493 75.2691 TC 30 26.0000 75.9000 1 14 302
1917219N21088 1917 32 NI AS NOT_NAMED 1917-08-09 18:00:00 TS 26.5224 74.9878 main 0 0 _________OP___ -1 26.7000 74.7000 TC 30 26.3892 75.2036 1 13 304
1917219N21088 1917 32 NI AS NOT_NAMED 1917-08-09 21:00:00 TS 26.8951 74.3989 main 0 0 _________PP___ -1 27.0882 74.1112 TC 30 26.7664 74.5907 1 13 306
1917219N21088 1917 32 NI AS NOT_NAMED 1917-08-10 00:00:00 TS 27.2571 73.8550 main 0 0 _________OP___ -1 27.5000 73.5000 TC 30 27.1356 74.0324 1 10 307
1917219N21088 1917 32 NI AS NOT_NAMED 1917-08-10 03:00:00 NR 27.5000 73.5000 main 0 __________O___ -1 TC 27.5000 73.5000 1 8 308

About IBTrACS Database

This database is a web-friendly format of International Best Track Archive for Climate Stewardship (IBTrACS), a global best track data archive curated by NOAA dating back to 1842.

Updated: 2021-10-08